Time;durP1;ratioP1;P1;durP2;ratioP2;P2;SDS_P1;SDS_P2;PMS_P1;PMS_P2;Temp;Humidity;BMP_temperature;BMP_pressure;BME280_temperature;BME280_humidity;BME280_pressure;Samples;Min_cycle;Max_cycle;Signal;HPM_P1;HPM_P2
2023/12/21 00:01:40;;;;;;;71.50;43.50;;;;;;;2.59;73.25;94012.00;4166004;28;20488;-69
2023/12/21 00:03:42;;;;;;;51.08;32.90;;;;;;;2.77;73.06;94016.56;4176614;28;20445;-69
2023/12/21 00:05:44;;;;;;;40.00;26.83;;;;;;;2.83;73.29;94014.28;4174142;28;20119;-68
2023/12/21 00:07:46;;;;;;;36.70;23.83;;;;;;;2.85;73.07;94009.00;4174656;28;20453;-69
2023/12/21 00:09:48;;;;;;;33.20;19.77;;;;;;;2.90;73.24;94009.41;4164196;28;20064;-69
2023/12/21 00:11:50;;;;;;;32.42;18.70;;;;;;;2.97;73.31;94020.91;4174935;28;20136;-69
2023/12/21 00:13:52;;;;;;;23.35;16.27;;;;;;;3.08;73.12;94012.22;4172952;28;20089;-66
2023/12/21 00:15:54;;;;;;;24.20;16.90;;;;;;;3.06;73.27;94014.13;4168150;28;20129;-68
2023/12/21 00:17:56;;;;;;;26.10;18.25;;;;;;;2.99;73.33;94024.19;4175535;28;20122;-67
2023/12/21 00:19:58;;;;;;;28.80;18.70;;;;;;;3.17;72.96;94011.44;4164040;28;20095;-68
2023/12/21 00:22:00;;;;;;;25.08;18.67;;;;;;;3.16;73.56;94016.75;4166581;28;20080;-68
2023/12/21 00:24:02;;;;;;;28.92;19.25;;;;;;;3.21;73.66;94023.16;4172422;28;20054;-68
2023/12/21 00:26:04;;;;;;;24.45;19.85;;;;;;;3.30;73.61;94016.38;4161923;28;20076;-67
2023/12/21 00:28:06;;;;;;;26.15;19.15;;;;;;;3.47;73.12;94022.72;4164706;28;20060;-67
2023/12/21 00:30:08;;;;;;;28.80;20.33;;;;;;;3.61;72.29;94034.44;4193061;28;20056;-65
2023/12/21 00:32:10;;;;;;;24.20;18.55;;;;;;;3.69;71.97;94027.66;4178927;28;20447;-67
2023/12/21 00:34:14;;;;;;;26.40;20.45;;;;;;;3.78;71.53;94031.19;4193781;28;20086;-68
2023/12/21 00:36:16;;;;;;;32.45;22.55;;;;;;;3.48;72.65;94029.50;4166840;28;20060;-69
2023/12/21 00:38:18;;;;;;;29.55;22.17;;;;;;;3.22;73.65;94042.91;4167872;28;20049;-69
2023/12/21 00:40:20;;;;;;;28.45;20.98;;;;;;;3.01;74.75;94045.56;4170419;28;20107;-67
2023/12/21 00:42:25;;;;;;;30.20;22.95;;;;;;;2.84;75.20;94038.41;4173059;28;20461;-68
2023/12/21 00:44:26;;;;;;;33.63;23.92;;;;;;;2.71;75.68;94046.38;4165187;28;20096;-67
2023/12/21 00:46:28;;;;;;;29.25;22.90;;;;;;;2.79;75.88;94049.13;4186178;28;20133;-69
2023/12/21 00:48:31;;;;;;;31.35;23.33;;;;;;;2.63;76.01;94059.94;4177565;28;20052;-70
2023/12/21 00:50:33;;;;;;;31.70;22.92;;;;;;;2.74;76.02;94059.03;4171151;28;20078;-69
2023/12/21 00:52:34;;;;;;;31.35;23.73;;;;;;;2.84;75.91;94059.91;4174308;28;20051;-69
2023/12/21 00:54:36;;;;;;;33.97;25.02;;;;;;;2.87;75.44;94057.06;4171955;28;20092;-69
2023/12/21 00:56:38;;;;;;;39.85;25.88;;;;;;;2.73;75.87;94064.31;4170108;28;20041;-70
2023/12/21 00:58:40;;;;;;;33.20;25.77;;;;;;;2.58;76.90;94048.31;4178281;28;20558;-69
2023/12/21 01:00:42;;;;;;;34.83;26.63;;;;;;;2.61;77.27;94068.75;4174266;28;20054;-68
2023/12/21 01:02:44;;;;;;;35.58;28.08;;;;;;;2.62;76.88;94053.13;4161230;28;20053;-70
2023/12/21 01:04:47;;;;;;;37.72;28.70;;;;;;;2.58;76.61;94049.16;4175072;28;20526;-68
2023/12/21 01:06:49;;;;;;;39.08;29.35;;;;;;;2.62;77.13;94055.72;4166446;28;20107;-69
2023/12/21 01:08:50;;;;;;;36.35;28.15;;;;;;;2.58;77.09;94048.31;4175407;28;20135;-69
2023/12/21 01:10:52;;;;;;;39.30;29.67;;;;;;;2.53;77.15;94058.22;4164777;28;20047;-67
2023/12/21 01:12:55;;;;;;;41.33;30.20;;;;;;;2.48;77.66;94063.78;4177175;28;20535;-68
2023/12/21 01:15:01;;;;;;;39.05;29.83;;;;;;;2.51;76.62;94060.94;4171040;28;20557;-68
2023/12/21 01:17:03;;;;;;;40.42;29.42;;;;;;;2.60;76.86;94052.44;4177900;28;20048;-69
2023/12/21 01:19:05;;;;;;;40.75;29.02;;;;;;;2.53;77.43;94056.44;4167594;28;20532;-67
2023/12/21 01:21:07;;;;;;;37.22;27.48;;;;;;;2.71;76.51;94058.47;4165334;28;20424;-67
2023/12/21 01:23:09;;;;;;;37.17;28.55;;;;;;;2.84;75.95;94059.91;4176442;28;20458;-69
2023/12/21 01:25:11;;;;;;;38.25;28.52;;;;;;;2.71;75.83;94051.53;4169761;28;20080;-68
2023/12/21 01:27:12;;;;;;;35.22;27.27;;;;;;;2.73;76.21;94054.81;4165701;28;20167;-67
2023/12/21 01:29:30;;;;;;;33.75;25.73;;;;;;;2.65;75.91;94055.44;4177350;28;20044;-68
2023/12/21 01:31:32;;;;;;;34.88;26.80;;;;;;;2.68;75.93;94051.78;4175600;28;20053;-69
2023/12/21 01:33:34;;;;;;;37.42;26.50;;;;;;;2.71;76.03;94059.31;4168490;28;20415;-70
2023/12/21 01:35:36;;;;;;;34.08;26.48;;;;;;;2.83;75.83;94060.03;4175484;28;20079;-68
2023/12/21 01:37:38;;;;;;;33.50;25.60;;;;;;;2.85;75.24;94058.97;4172806;28;20403;-67
2023/12/21 01:39:40;;;;;;;38.35;26.17;;;;;;;2.71;75.24;94061.91;4174701;28;20044;-69
2023/12/21 01:41:41;;;;;;;32.50;25.33;;;;;;;2.70;75.29;94049.09;4167597;28;20053;-68
2023/12/21 01:43:43;;;;;;;32.60;24.63;;;;;;;2.70;75.46;94054.25;4166668;28;20300;-68
2023/12/21 01:45:45;;;;;;;33.35;24.83;;;;;;;2.59;75.31;94044.78;4184061;28;20056;-68
2023/12/21 01:47:47;;;;;;;33.33;24.98;;;;;;;2.61;75.76;94046.31;4179973;28;20101;-70
2023/12/21 01:49:50;;;;;;;35.08;26.00;;;;;;;2.58;76.06;94046.56;4175064;28;20104;-67
2023/12/21 01:51:52;;;;;;;32.70;24.17;;;;;;;2.62;75.93;94049.69;4172505;28;20059;-69
2023/12/21 01:53:54;;;;;;;33.63;23.58;;;;;;;2.65;75.56;94039.13;4174596;28;20053;-69
2023/12/21 01:55:56;;;;;;;26.77;20.63;;;;;;;2.73;75.46;94038.47;4158589;28;20053;-69
2023/12/21 01:57:58;;;;;;;32.70;24.00;;;;;;;2.63;75.85;94033.25;4172156;28;20072;-68
2023/12/21 02:00:01;;;;;;;32.15;23.90;;;;;;;2.72;76.01;94036.84;4184673;28;20407;-68
2023/12/21 02:02:02;;;;;;;29.40;22.00;;;;;;;2.74;75.08;94033.19;4173314;28;20392;-68
2023/12/21 02:04:05;;;;;;;29.80;22.13;;;;;;;2.78;74.83;94024.22;4180885;28;20068;-68
2023/12/21 02:06:07;;;;;;;27.98;21.67;;;;;;;2.77;74.76;94026.91;4176456;28;20081;-70
2023/12/21 02:08:09;;;;;;;31.52;22.60;;;;;;;2.75;75.05;94037.38;4167743;28;20050;-69
2023/12/21 02:10:10;;;;;;;30.15;21.65;;;;;;;2.69;75.28;94037.06;4171052;28;20128;-69
2023/12/21 02:12:12;;;;;;;31.42;22.58;;;;;;;2.52;75.80;94031.56;4163093;28;20484;-67
2023/12/21 02:14:14;;;;;;;34.03;22.67;;;;;;;2.56;76.17;94038.13;4168822;28;20053;-66
2023/12/21 02:17:02;;;;;;;37.22;26.27;;;;;;;2.57;75.92;94046.69;4177820;28;20127;-69
2023/12/21 02:19:04;;;;;;;38.42;28.65;;;;;;;2.50;76.92;94050.72;4174644;28;20474;-69
2023/12/21 02:21:07;;;;;;;40.10;31.50;;;;;;;2.48;76.77;94048.25;4174994;28;20166;-67
2023/12/21 02:23:10;;;;;;;41.63;31.60;;;;;;;2.45;77.03;94041.59;4160606;28;20077;-70
2023/12/21 02:25:12;;;;;;;41.07;31.93;;;;;;;2.52;76.29;94049.66;4173399;28;20049;-68
2023/12/21 02:27:14;;;;;;;46.05;34.08;;;;;;;2.41;76.63;94053.13;4174791;28;20044;-68
2023/12/21 02:29:16;;;;;;;43.47;33.38;;;;;;;2.45;77.00;94048.50;4172675;28;20063;-69
2023/12/21 02:31:18;;;;;;;49.75;34.70;;;;;;;2.50;76.75;94043.78;4172112;28;20150;-66
2023/12/21 02:33:20;;;;;;;46.47;36.28;;;;;;;2.50;76.80;94048.97;4181059;28;20090;-67
2023/12/21 02:35:22;;;;;;;48.10;36.78;;;;;;;2.39;77.04;94047.25;4175521;28;20044;-68
2023/12/21 02:37:23;;;;;;;50.08;37.10;;;;;;;2.30;77.58;94066.06;4175664;28;20397;-67
2023/12/21 02:39:25;;;;;;;46.65;37.58;;;;;;;2.09;78.26;94055.75;4175455;28;20049;-68
2023/12/21 02:41:27;;;;;;;46.17;35.78;;;;;;;1.91;78.95;94060.59;4175071;28;20480;-67
2023/12/21 02:43:29;;;;;;;48.45;36.58;;;;;;;1.87;78.98;94056.63;4165644;28;20121;-67
2023/12/21 02:45:31;;;;;;;46.53;37.00;;;;;;;1.64;79.98;94061.84;4171148;28;20065;-68
2023/12/21 02:47:33;;;;;;;51.40;35.65;;;;;;;1.66;79.96;94055.72;4172536;28;20080;-69
2023/12/21 02:49:35;;;;;;;48.67;35.05;;;;;;;1.57;80.48;94063.28;4175444;28;20131;-68
2023/12/21 02:51:37;;;;;;;44.25;35.30;;;;;;;1.75;79.87;94055.03;4174539;28;20428;-68
2023/12/21 02:53:40;;;;;;;43.92;33.80;;;;;;;1.82;79.21;94064.72;4171134;28;20136;-68
2023/12/21 02:55:42;;;;;;;45.78;33.50;;;;;;;1.90;79.01;94063.31;4173237;28;20168;-66
2023/12/21 02:57:44;;;;;;;45.15;33.75;;;;;;;1.75;79.40;94063.59;4167451;28;20410;-68
2023/12/21 02:59:45;;;;;;;40.60;32.05;;;;;;;1.85;79.24;94055.94;4169237;28;20256;-68
2023/12/21 03:01:47;;;;;;;39.25;29.73;;;;;;;1.94;78.76;94049.22;4172522;28;20132;-70
2023/12/21 03:03:49;;;;;;;39.45;29.08;;;;;;;2.05;79.00;94062.09;4175353;28;20075;-67
2023/12/21 03:05:51;;;;;;;36.92;28.83;;;;;;;2.14;78.56;94058.75;4168358;28;20361;-66
2023/12/21 03:07:54;;;;;;;37.10;29.95;;;;;;;2.05;78.43;94057.75;4174254;28;20044;-68
2023/12/21 03:09:56;;;;;;;34.85;27.20;;;;;;;2.08;78.91;94061.81;4177120;28;20057;-67
2023/12/21 03:11:58;;;;;;;31.42;25.50;;;;;;;2.25;78.49;94065.66;4173805;28;20131;-70
2023/12/21 03:14:00;;;;;;;27.02;22.73;;;;;;;2.32;78.30;94063.38;4169604;28;20064;-68
2023/12/21 03:16:09;;;;;;;27.30;22.27;;;;;;;2.49;77.63;94065.41;4166976;28;20050;-67
2023/12/21 03:18:12;;;;;;;25.05;20.00;;;;;;;2.73;77.34;94075.53;4174203;28;20060;-67
2023/12/21 03:20:14;;;;;;;24.40;18.67;;;;;;;3.02;75.70;94069.69;4176113;28;20088;-68
2023/12/21 03:22:16;;;;;;;22.75;18.65;;;;;;;3.13;74.79;94074.75;4170893;28;20056;-67
2023/12/21 03:24:18;;;;;;;20.27;17.35;;;;;;;3.34;74.39;94087.66;4174984;28;20050;-69
2023/12/21 03:26:20;;;;;;;21.52;15.40;;;;;;;3.38;73.70;94076.09;4172989;28;20103;-67
2023/12/21 03:28:22;;;;;;;20.83;16.42;;;;;;;3.55;73.39;94061.72;4178846;28;20045;-67
2023/12/21 03:30:24;;;;;;;19.33;16.15;;;;;;;3.74;72.95;94070.47;4178989;28;20076;-69
2023/12/21 03:32:26;;;;;;;18.73;15.80;;;;;;;3.87;71.76;94084.84;4174650;28;20209;-69
2023/12/21 03:34:28;;;;;;;21.43;17.77;;;;;;;3.87;71.61;94077.06;4166365;28;20129;-69
2023/12/21 03:36:31;;;;;;;21.08;16.60;;;;;;;3.88;71.52;94080.47;4172454;28;20071;-69
2023/12/21 03:38:32;;;;;;;19.85;16.35;;;;;;;3.82;71.30;94075.81;4177444;28;20055;-67
2023/12/21 03:40:34;;;;;;;22.98;18.17;;;;;;;3.80;71.74;94072.53;4174474;28;20413;-68
2023/12/21 03:42:36;;;;;;;23.77;19.08;;;;;;;3.64;72.25;94081.63;4177894;28;20559;-68
2023/12/21 03:44:38;;;;;;;21.75;17.30;;;;;;;3.64;72.25;94083.41;4175954;28;20060;-69
2023/12/21 03:46:40;;;;;;;22.48;18.70;;;;;;;3.70;72.45;94082.88;4178635;28;20045;-68
2023/12/21 03:48:42;;;;;;;22.80;17.98;;;;;;;3.67;72.10;94078.75;4179574;28;20554;-69
2023/12/21 03:50:44;;;;;;;21.27;17.67;;;;;;;3.74;72.50;94075.66;4175944;28;20421;-68
2023/12/21 03:52:45;;;;;;;20.00;16.70;;;;;;;3.75;72.05;94087.66;4177086;28;20448;-68
2023/12/21 03:54:48;;;;;;;24.05;17.92;;;;;;;3.88;71.67;94083.88;4176433;28;20053;-66
2023/12/21 03:56:49;;;;;;;21.00;16.55;;;;;;;3.96;71.46;94082.38;4176366;28;20057;-67
2023/12/21 03:58:51;;;;;;;19.05;15.82;;;;;;;3.92;71.48;94087.03;4168436;28;20053;-69
2023/12/21 04:00:53;;;;;;;18.95;16.10;;;;;;;4.00;71.01;94084.59;4166334;28;20177;-69
2023/12/21 04:02:55;;;;;;;19.38;15.80;;;;;;;4.00;71.36;94088.91;4172994;28;20095;-68
2023/12/21 04:04:58;;;;;;;20.27;16.02;;;;;;;4.07;71.05;94088.25;4167529;28;20049;-69
2023/12/21 04:06:59;;;;;;;20.17;15.93;;;;;;;4.04;70.95;94085.97;4167860;28;20076;-69
2023/12/21 04:09:02;;;;;;;17.92;15.75;;;;;;;4.00;70.66;94092.34;4179220;28;20407;-68
2023/12/21 04:11:04;;;;;;;17.40;14.80;;;;;;;3.94;70.80;94087.72;4177905;28;20103;-68
2023/12/21 04:13:05;;;;;;;17.10;14.73;;;;;;;3.94;70.99;94087.72;4165913;28;20068;-68
2023/12/21 04:15:08;;;;;;;17.88;15.70;;;;;;;3.99;70.60;94087.28;4164400;28;20107;-69
2023/12/21 04:17:10;;;;;;;20.27;14.35;;;;;;;3.94;70.32;94095.47;4172281;28;20124;-69
2023/12/21 04:19:12;;;;;;;19.70;16.15;;;;;;;3.93;70.88;94096.41;4172897;28;20044;-68
2023/12/21 04:21:14;;;;;;;17.63;14.52;;;;;;;3.86;70.67;94087.53;4180375;28;20124;-69
2023/12/21 04:23:16;;;;;;;18.15;14.88;;;;;;;3.86;70.84;94080.59;4167353;28;20460;-68
2023/12/21 04:25:18;;;;;;;20.85;15.32;;;;;;;3.96;70.48;94090.13;4166528;28;20090;-67
2023/12/21 04:27:19;;;;;;;18.80;15.13;;;;;;;3.89;70.22;94085.53;4166013;28;20050;-67
2023/12/21 04:29:21;;;;;;;18.33;13.57;;;;;;;4.01;70.88;94095.75;4170488;28;20114;-68
2023/12/21 04:31:23;;;;;;;17.10;14.35;;;;;;;3.99;70.91;94095.88;4170735;28;20136;-67
2023/12/21 04:33:25;;;;;;;17.98;15.25;;;;;;;4.07;70.14;94096.03;4169375;28;20465;-67
2023/12/21 04:35:27;;;;;;;16.90;14.18;;;;;;;4.09;69.62;94093.31;4167557;28;20053;-69
2023/12/21 04:37:29;;;;;;;18.33;14.00;;;;;;;4.04;69.93;94088.53;4172059;28;20049;-67
2023/12/21 04:39:31;;;;;;;18.65;15.18;;;;;;;4.03;70.00;94099.84;4177609;28;20060;-66
2023/12/21 04:41:33;;;;;;;19.90;14.98;;;;;;;4.16;70.15;94093.59;4178097;28;20048;-67
2023/12/21 04:43:35;;;;;;;16.10;13.70;;;;;;;4.10;69.72;94093.16;4178123;28;20057;-68
2023/12/21 04:45:37;;;;;;;17.50;13.60;;;;;;;4.06;70.04;94104.75;4173232;28;20140;-68
2023/12/21 04:47:39;;;;;;;17.00;14.32;;;;;;;4.10;69.44;94090.56;4165622;28;20045;-68
2023/12/21 04:49:41;;;;;;;14.82;13.18;;;;;;;4.17;70.09;94082.25;4175792;28;20049;-67
2023/12/21 04:51:43;;;;;;;18.85;14.70;;;;;;;4.22;68.96;94091.28;4166500;28;22209;-68
2023/12/21 04:53:45;;;;;;;15.57;13.38;;;;;;;4.20;69.75;94093.19;4172607;28;20051;-70
2023/12/21 04:55:48;;;;;;;17.15;13.18;;;;;;;4.17;70.02;94087.44;4177441;28;20148;-69
2023/12/21 04:57:50;;;;;;;17.40;15.03;;;;;;;4.24;69.52;94088.56;4179256;28;20053;-69
2023/12/21 04:59:52;;;;;;;16.35;13.38;;;;;;;4.23;69.03;94086.91;4172373;28;20052;-67
2023/12/21 05:01:56;;;;;;;16.67;13.48;;;;;;;4.20;69.35;94092.38;4167664;28;20045;-69
2023/12/21 05:03:59;;;;;;;16.23;13.45;;;;;;;4.08;69.49;94092.47;4177522;28;20049;-71
2023/12/21 05:06:01;;;;;;;14.23;11.40;;;;;;;3.98;69.38;94093.41;4165098;28;20104;-70
2023/12/21 05:08:04;;;;;;;14.77;12.07;;;;;;;3.93;69.63;94093.00;4202508;28;20059;-68
2023/12/21 05:10:06;;;;;;;15.55;11.88;;;;;;;4.04;68.90;94087.72;4175768;28;20053;-69
2023/12/21 05:12:08;;;;;;;16.20;12.60;;;;;;;4.19;69.05;94093.31;4176464;28;20346;-69
2023/12/21 05:14:10;;;;;;;17.98;13.38;;;;;;;4.22;68.89;94100.84;4178718;28;20055;-69
2023/12/21 05:16:13;;;;;;;14.45;12.25;;;;;;;4.21;69.03;94105.19;4166602;28;20045;-69
2023/12/21 05:18:15;;;;;;;15.43;12.10;;;;;;;4.22;68.58;94093.06;4164491;28;20036;-68
2023/12/21 05:20:17;;;;;;;14.90;11.60;;;;;;;4.17;68.91;94109.00;4169582;28;20516;-70
2023/12/21 05:22:18;;;;;;;15.50;12.45;;;;;;;4.15;69.01;94107.50;4178678;28;20442;-70
2023/12/21 05:24:20;;;;;;;15.48;12.63;;;;;;;4.04;69.12;94104.09;4170672;28;20442;-69
2023/12/21 05:26:22;;;;;;;14.68;11.95;;;;;;;4.14;69.09;94101.50;4173168;28;20053;-71
2023/12/21 05:28:24;;;;;;;15.93;13.20;;;;;;;4.23;69.14;94110.25;4173863;28;20049;-71
2023/12/21 05:30:26;;;;;;;18.05;13.23;;;;;;;4.22;68.54;94106.03;4171964;28;20045;-69
2023/12/21 05:32:29;;;;;;;15.05;12.30;;;;;;;4.16;69.02;94096.19;4177417;28;20107;-69
2023/12/21 05:34:32;;;;;;;15.15;12.82;;;;;;;4.27;68.28;94109.03;4169400;28;20049;-69
2023/12/21 05:36:34;;;;;;;15.48;12.57;;;;;;;4.23;68.63;94097.28;4176858;28;20503;-69
2023/12/21 05:38:36;;;;;;;14.82;12.20;;;;;;;4.25;68.11;94097.97;4176287;28;20045;-69
2023/12/21 05:40:38;;;;;;;14.35;11.90;;;;;;;4.14;68.02;94096.31;4175298;28;20053;-71
2023/12/21 05:42:40;;;;;;;13.85;11.75;;;;;;;4.11;68.83;94101.78;4178490;28;20377;-71
2023/12/21 05:44:42;;;;;;;14.30;10.90;;;;;;;4.22;67.77;94096.47;4172407;28;20132;-69
2023/12/21 05:46:44;;;;;;;13.75;11.35;;;;;;;4.23;67.85;94102.47;4169927;28;20049;-70
2023/12/21 05:48:47;;;;;;;15.13;12.20;;;;;;;4.27;67.60;94096.88;4169198;28;20056;-70
2023/12/21 05:50:49;;;;;;;15.50;12.40;;;;;;;4.32;67.87;94101.66;4175171;28;20087;-70
2023/12/21 05:52:51;;;;;;;15.98;12.77;;;;;;;4.31;67.81;94093.06;4169989;28;20452;-68
2023/12/21 05:54:53;;;;;;;15.55;12.35;;;;;;;4.44;67.70;94086.78;4173524;28;20056;-69
2023/12/21 05:56:55;;;;;;;15.55;12.20;;;;;;;4.44;66.85;94085.00;4177883;28;20045;-69
2023/12/21 05:58:57;;;;;;;16.33;12.75;;;;;;;4.33;67.08;94085.16;4170513;28;20049;-69
2023/12/21 06:00:58;;;;;;;18.30;13.07;;;;;;;4.30;67.52;94088.00;4183584;28;20393;-70
2023/12/21 06:03:00;;;;;;;16.35;13.18;;;;;;;4.29;68.06;94084.59;4174412;28;20045;-70
2023/12/21 06:05:03;;;;;;;15.75;12.82;;;;;;;4.24;67.89;94079.00;4171585;28;20480;-70
2023/12/21 06:07:05;;;;;;;16.92;13.73;;;;;;;4.25;68.28;94079.81;4175373;28;20481;-70
2023/12/21 06:09:07;;;;;;;16.60;13.00;;;;;;;4.25;68.04;94087.59;4171077;28;20045;-67
2023/12/21 06:11:09;;;;;;;15.30;11.93;;;;;;;4.18;68.26;94089.91;4164502;28;20119;-70
2023/12/21 06:13:11;;;;;;;16.17;13.60;;;;;;;4.24;67.97;94093.75;4175713;28;20128;-69
2023/12/21 06:15:13;;;;;;;17.95;13.98;;;;;;;4.24;68.63;94089.38;4176436;28;20049;-67
2023/12/21 06:17:15;;;;;;;18.73;13.57;;;;;;;4.34;68.50;94086.78;4171215;28;20111;-71
2023/12/21 06:19:18;;;;;;;16.27;13.30;;;;;;;4.34;68.20;94089.38;4170390;28;20143;-70
2023/12/21 06:21:22;;;;;;;15.75;13.20;;;;;;;4.33;67.50;94077.38;4171686;28;20053;-70
2023/12/21 06:23:24;;;;;;;14.50;11.95;;;;;;;4.28;67.22;94075.19;4169697;28;20123;-70
2023/12/21 06:25:25;;;;;;;17.42;13.07;;;;;;;4.31;67.00;94084.47;4169281;28;20361;-71
2023/12/21 06:27:27;;;;;;;15.85;13.00;;;;;;;4.13;66.83;94081.72;4169830;28;20053;-68
2023/12/21 06:29:29;;;;;;;15.25;12.32;;;;;;;4.14;67.39;94085.94;4164323;28;20473;-69
2023/12/21 06:31:31;;;;;;;13.02;11.52;;;;;;;4.53;66.46;94082.56;4166259;28;20049;-69
2023/12/21 06:33:35;;;;;;;14.40;11.43;;;;;;;5.01;64.98;94071.28;4164391;28;20049;-70
2023/12/21 06:35:37;;;;;;;15.63;11.18;;;;;;;5.33;63.53;94071.72;4171295;28;20400;-71
2023/12/21 06:37:39;;;;;;;13.65;11.40;;;;;;;5.50;62.63;94072.72;4169605;28;20148;-70
2023/12/21 06:39:41;;;;;;;14.35;11.13;;;;;;;5.24;63.00;94076.94;4176391;28;20468;-71
2023/12/21 06:41:44;;;;;;;14.63;10.65;;;;;;;5.32;63.25;94083.06;4170951;28;20060;-70
2023/12/21 06:43:46;;;;;;;14.27;11.30;;;;;;;5.41;63.42;94088.38;4169898;28;20042;-70
2023/12/21 06:45:49;;;;;;;14.15;10.98;;;;;;;5.37;63.28;94092.22;4172604;28;20377;-70
2023/12/21 06:47:51;;;;;;;13.65;11.70;;;;;;;5.25;63.02;94099.38;4171686;28;20118;-70
2023/12/21 06:49:52;;;;;;;14.77;11.13;;;;;;;5.01;63.33;94097.22;4178417;28;20045;-69
2023/12/21 06:51:54;;;;;;;12.82;10.27;;;;;;;4.98;63.99;94100.13;4173017;28;20136;-71
2023/12/21 06:53:56;;;;;;;13.73;11.25;;;;;;;4.39;65.34;94109.69;4174472;28;20492;-71
2023/12/21 06:55:58;;;;;;;15.27;11.82;;;;;;;4.37;66.06;94099.47;4175271;28;20072;-70
2023/12/21 06:58:20;;;;;;;15.77;12.43;;;;;;;4.37;66.11;94098.66;4178709;28;20052;-70
2023/12/21 07:00:22;;;;;;;15.52;12.18;;;;;;;4.32;66.12;94091.28;4169100;28;20064;-72
2023/12/21 07:02:24;;;;;;;16.13;12.93;;;;;;;4.09;66.94;94109.69;4168592;28;20489;-69
2023/12/21 07:04:26;;;;;;;16.73;12.45;;;;;;;3.66;68.87;94107.41;4173425;28;20081;-70
2023/12/21 07:06:28;;;;;;;17.45;12.50;;;;;;;3.74;68.71;94109.31;4174962;28;20131;-69
2023/12/21 07:08:30;;;;;;;15.10;11.40;;;;;;;3.56;68.48;94117.72;4176785;28;20403;-69
2023/12/21 07:10:32;;;;;;;15.07;12.27;;;;;;;3.40;69.44;94115.63;4175867;28;20071;-69
2023/12/21 07:12:34;;;;;;;15.52;13.15;;;;;;;3.37;69.54;94115.06;4167416;28;20059;-69
2023/12/21 07:14:39;;;;;;;15.75;13.07;;;;;;;3.22;70.24;94106.81;4174648;28;20484;-67
2023/12/21 07:16:40;;;;;;;18.10;13.15;;;;;;;3.10;70.89;94121.63;4177677;28;20049;-69
2023/12/21 07:18:42;;;;;;;16.67;13.70;;;;;;;3.26;70.96;94108.19;4171523;28;20118;-70
2023/12/21 07:20:44;;;;;;;18.65;14.40;;;;;;;3.16;70.75;94109.91;4167821;28;20071;-74
2023/12/21 07:22:48;;;;;;;17.95;14.18;;;;;;;3.34;70.33;94117.91;4165327;28;20538;-68
2023/12/21 07:24:51;;;;;;;19.27;14.88;;;;;;;3.39;70.78;94120.94;4169209;28;20063;-69
2023/12/21 07:26:53;;;;;;;21.88;15.65;;;;;;;3.36;70.93;94122.00;4164900;28;20049;-70
2023/12/21 07:28:54;;;;;;;18.45;13.48;;;;;;;3.31;71.00;94115.56;4152329;28;20117;-69
2023/12/21 07:30:57;;;;;;;19.73;14.02;;;;;;;3.57;70.70;94105.59;4171308;28;20133;-70
2023/12/21 07:32:58;;;;;;;17.00;12.93;;;;;;;3.90;68.71;94105.28;4167655;28;20102;-70
2023/12/21 07:35:00;;;;;;;15.63;11.85;;;;;;;3.80;68.36;94101.84;4159989;28;20053;-71
2023/12/21 07:37:03;;;;;;;15.20;11.90;;;;;;;3.58;68.27;94118.41;4174281;28;20135;-68
2023/12/21 07:39:04;;;;;;;13.98;11.15;;;;;;;3.54;68.92;94098.91;4164444;28;20088;-69
2023/12/21 07:41:13;;;;;;;14.30;11.00;;;;;;;3.42;67.82;94112.88;4173822;28;20427;-70
2023/12/21 07:43:15;;;;;;;15.13;10.82;;;;;;;3.37;68.29;94122.81;4176882;28;20457;-68
2023/12/21 07:45:17;;;;;;;14.80;10.27;;;;;;;3.31;68.10;94116.38;4166184;28;20105;-70
2023/12/21 07:47:19;;;;;;;14.57;10.77;;;;;;;3.38;68.13;94132.25;4165643;28;20067;-70
2023/12/21 07:49:21;;;;;;;19.45;11.52;;;;;;;3.46;67.94;94130.66;4169642;28;20084;-70
2023/12/21 07:51:23;;;;;;;15.30;11.38;;;;;;;3.41;67.75;94129.38;4177310;28;20106;-71
2023/12/21 07:53:25;;;;;;;14.55;10.93;;;;;;;3.31;68.59;94142.28;4171895;28;20128;-68
2023/12/21 07:55:26;;;;;;;17.63;11.57;;;;;;;3.16;68.82;94141.81;4171205;28;20050;-70
2023/12/21 07:57:28;;;;;;;16.92;11.32;;;;;;;3.13;69.27;94136.88;4169042;28;20049;-71
2023/12/21 07:59:30;;;;;;;18.65;12.38;;;;;;;3.20;69.51;94142.34;4175909;28;20049;-70
2023/12/21 08:01:32;;;;;;;17.75;12.65;;;;;;;3.22;69.10;94149.03;4179737;28;20053;-70
2023/12/21 08:03:34;;;;;;;17.20;12.25;;;;;;;3.33;68.55;94140.38;4179711;28;20059;-70
2023/12/21 08:05:36;;;;;;;15.70;11.93;;;;;;;3.33;68.52;94148.16;4178285;28;20055;-70
2023/12/21 08:07:39;;;;;;;14.45;11.63;;;;;;;3.52;68.67;94134.47;4178721;28;20103;-71
2023/12/21 08:09:41;;;;;;;14.05;10.35;;;;;;;3.87;67.13;94144.44;4172034;28;20536;-70
2023/12/21 08:11:43;;;;;;;15.20;11.07;;;;;;;4.20;66.30;94133.84;4176199;28;20052;-71
2023/12/21 08:13:45;;;;;;;13.70;10.90;;;;;;;4.06;65.75;94146.22;4176123;28;20103;-70
2023/12/21 08:15:47;;;;;;;15.23;10.95;;;;;;;4.00;65.95;94149.38;4178320;28;20053;-71
2023/12/21 08:17:55;;;;;;;14.43;10.70;;;;;;;3.64;67.39;94154.16;4174172;28;20057;-71
2023/12/21 08:19:57;;;;;;;16.45;10.77;;;;;;;3.85;67.62;94142.91;4176909;28;20056;-71
2023/12/21 08:22:00;;;;;;;14.25;11.07;;;;;;;4.19;65.90;94137.38;4178076;28;20122;-69
2023/12/21 08:24:03;;;;;;;16.30;11.75;;;;;;;4.47;64.86;94141.81;4177281;28;20416;-69
2023/12/21 08:26:06;;;;;;;14.50;10.25;;;;;;;4.77;64.50;94140.00;4174289;28;20125;-69
2023/12/21 08:28:07;;;;;;;14.32;10.82;;;;;;;4.75;63.50;94144.53;4178554;28;20041;-70
2023/12/21 08:30:10;;;;;;;14.60;9.80;;;;;;;4.91;63.37;94136.19;4180674;28;20041;-70
2023/12/21 08:32:13;;;;;;;15.73;11.48;;;;;;;5.23;62.30;94138.47;4180052;28;20053;-71
2023/12/21 08:34:15;;;;;;;16.40;11.45;;;;;;;5.09;62.40;94137.09;4179266;28;20076;-70
2023/12/21 08:36:17;;;;;;;15.80;11.40;;;;;;;5.11;62.60;94147.34;4174970;28;20049;-70
2023/12/21 08:38:20;;;;;;;19.23;12.20;;;;;;;4.77;63.71;94142.59;4172214;28;20076;-69
2023/12/21 08:40:22;;;;;;;10.50;8.50;;;;;;;5.06;62.18;94136.59;4176442;28;20507;-69
2023/12/21 08:42:26;;;;;;;12.00;9.18;;;;;;;5.46;61.44;94140.72;4163449;28;20582;-70
2023/12/21 08:44:28;;;;;;;19.58;13.18;;;;;;;5.11;62.00;94134.38;4164052;28;20053;-70
2023/12/21 08:46:43;;;;;;;21.35;11.73;;;;;;;4.87;62.13;94130.44;4166264;28;20107;-72
2023/12/21 08:48:45;;;;;;;15.60;10.80;;;;;;;4.77;63.27;94129.63;4182937;28;20040;-70
2023/12/21 08:50:47;;;;;;;17.15;10.65;;;;;;;4.83;63.09;94121.31;4166082;28;20051;-70
2023/12/21 08:52:49;;;;;;;14.10;10.07;;;;;;;5.24;62.39;94118.50;4165951;28;20410;-70
2023/12/21 08:54:51;;;;;;;14.45;9.50;;;;;;;5.67;60.30;94112.72;4175401;28;20056;-70
2023/12/21 08:56:53;;;;;;;14.45;9.10;;;;;;;5.91;59.21;94111.38;4170956;28;20123;-71
2023/12/21 08:58:56;;;;;;;10.35;8.20;;;;;;;6.07;58.83;94106.41;4170321;28;20102;-70
2023/12/21 09:00:58;;;;;;;12.57;9.60;;;;;;;6.05;58.89;94097.94;4179016;28;20045;-70
2023/12/21 09:03:01;;;;;;;11.77;8.57;;;;;;;6.25;58.03;94097.81;4178081;28;20186;-71
2023/12/21 09:05:03;;;;;;;12.15;9.18;;;;;;;6.52;57.73;94104.75;4177683;28;20392;-69
2023/12/21 09:07:05;;;;;;;11.45;8.85;;;;;;;6.36;57.72;94095.00;4169319;28;20084;-70
2023/12/21 09:09:07;;;;;;;11.48;8.32;;;;;;;6.50;57.40;94099.69;4164846;28;20048;-71
2023/12/21 09:11:09;;;;;;;16.67;8.00;;;;;;;6.60;56.68;94097.00;4163342;28;20059;-70
2023/12/21 09:13:11;;;;;;;11.48;9.05;;;;;;;6.48;57.34;94090.41;4164755;28;20053;-71
2023/12/21 09:15:13;;;;;;;14.25;9.32;;;;;;;6.05;58.26;94090.13;4168725;28;20080;-68
2023/12/21 09:17:15;;;;;;;10.85;8.20;;;;;;;5.92;58.75;94092.25;4170662;28;20076;-72
2023/12/21 09:19:17;;;;;;;11.73;8.70;;;;;;;6.09;58.55;94083.69;4188039;28;20045;-71
2023/12/21 09:21:19;;;;;;;14.20;8.80;;;;;;;6.38;58.32;94072.25;4177288;28;20044;-70
2023/12/21 09:23:21;;;;;;;13.65;9.13;;;;;;;6.41;57.58;94071.97;4180299;28;20118;-71
2023/12/21 09:25:23;;;;;;;11.18;8.50;;;;;;;6.05;57.96;94074.53;4168320;28;20053;-71
2023/12/21 09:27:27;;;;;;;12.25;7.88;;;;;;;5.58;59.87;94085.03;4175370;28;20049;-71
2023/12/21 09:29:30;;;;;;;12.07;8.50;;;;;;;5.12;60.62;94076.31;4165435;28;20134;-70
2023/12/21 09:31:32;;;;;;;16.30;9.02;;;;;;;5.56;59.99;94063.56;4173513;28;20068;-69